Paddockwood, Canada
Current Conditions -  °F | °C
As of 8:00 AM on Friday 31 Oct 2014 (Local Time) from CYPA Reporting Station
Broken Clouds Broken Clouds  
Wind Chill: 20°   Ceiling: 10000
Heat Index: 28°   Visibility: 15mi
Dew Point: 25°   Wind: 8mph
Humidity: 86%   Direction: 150°SSE
Pressure: 30.07"   Gusts: NA
Location:  53.5°N, 105.57°W
Report Text: CYPA 311400Z 15007KT 15SM BKN100 M02/M04 A3007 RMK AC7 SLP210
Loading
Personal Weather Stations






























Interactive Weather Map
Tropical Storm Tracking
New forecast layout! Learn more

10-Day Weather Forecast

Advertisements
Track Severe Weather on mobile